Terminal Aerodrome Forecast
Issued by NWS

Home | Current Version | Previous Version | Text Only | Print | Product List | Glossary On
Versions: 1 2 3 4 5 6 7 8 9 10 11 12 13 14 15 16 17 18 19 20 21 22 23 24 25 26 27
000
FTUS44 KOHX 200900 AAB
TAFCKV
TAF AMD
KCKV 200915Z 2009/2106 00000KT 6SM BR SKC
      TEMPO 2009/2012 2SM BR
     FM201500 24007KT P6SM SCT050 BKN150=

USA.gov is the U.S. government's official web portal to all federal, state and local government web resources and services.